createdAt,value
2023-05-16T00:00:58.495Z,98872.53
2023-05-16T00:03:27.055Z,98863.81
2023-05-16T00:05:56.163Z,98864.50
2023-05-16T00:08:24.028Z,98859.69
2023-05-16T00:10:54.909Z,98864.13
2023-05-16T00:13:25.823Z,98866.69
2023-05-16T00:15:56.189Z,98864.06
2023-05-16T00:18:26.179Z,98853.53
2023-05-16T00:20:54.818Z,98857.03
2023-05-16T00:23:22.949Z,98853.03
2023-05-16T00:25:50.994Z,98849.38
2023-05-16T00:28:18.857Z,98846.53
2023-05-16T00:30:46.668Z,98854.81
2023-05-16T00:33:15.686Z,98861.38
2023-05-16T00:35:43.577Z,98854.22
2023-05-16T00:38:11.501Z,98859.22
2023-05-16T00:40:39.439Z,98851.75
2023-05-16T00:43:07.605Z,98864.16
2023-05-16T00:45:35.430Z,98865.28
2023-05-16T00:48:04.016Z,98852.56
2023-05-16T00:50:34.641Z,98862.69
2023-05-16T00:53:02.314Z,98845.91
2023-05-16T00:55:29.965Z,98846.22
2023-05-16T00:57:58.311Z,98835.38
2023-05-16T01:00:26.293Z,98854.88
2023-05-16T01:02:54.162Z,98856.50
2023-05-16T01:05:22.179Z,98867.38
2023-05-16T01:07:51.171Z,98863.13
2023-05-16T01:10:18.966Z,98873.34
2023-05-16T01:12:50.305Z,98877.69
2023-05-16T01:15:22.433Z,98871.56
2023-05-16T01:17:59.251Z,98873.34
2023-05-16T01:20:35.386Z,98879.56
2023-05-16T01:23:19.322Z,98881.19
2023-05-16T01:25:58.574Z,98872.41
2023-05-16T01:28:28.814Z,98871.81
2023-05-16T01:30:56.803Z,98876.22
2023-05-16T01:33:25.029Z,98880.56
2023-05-16T01:35:59.195Z,98876.94
2023-05-16T01:38:28.724Z,98876.31
2023-05-16T01:41:01.213Z,98882.75
2023-05-16T01:43:35.505Z,98874.22
2023-05-16T01:46:10.724Z,98865.06
2023-05-16T01:48:44.467Z,98869.56
2023-05-16T01:51:13.442Z,98865.91
2023-05-16T01:53:41.278Z,98864.53
2023-05-16T01:56:12.720Z,98871.66
2023-05-16T01:58:43.523Z,98873.53
2023-05-16T02:01:11.668Z,98869.50
2023-05-16T02:03:39.924Z,98874.53
2023-05-16T02:06:08.251Z,98873.75
2023-05-16T02:08:36.269Z,98868.94
2023-05-16T02:11:04.277Z,98876.72
2023-05-16T02:13:32.407Z,98874.44
2023-05-16T02:16:01.857Z,98883.00
2023-05-16T02:18:29.697Z,98884.63
2023-05-16T02:20:57.698Z,98878.50
2023-05-16T02:23:25.757Z,98888.56
2023-05-16T02:25:53.601Z,98890.38
2023-05-16T02:28:21.641Z,98888.19
2023-05-16T02:30:58.293Z,98890.97
2023-05-16T02:33:28.297Z,98895.25
2023-05-16T02:35:56.364Z,98889.03
2023-05-16T02:38:24.250Z,98897.50
2023-05-16T02:40:52.181Z,98901.91
2023-05-16T02:43:20.083Z,98908.28
2023-05-16T02:45:48.123Z,98907.91
2023-05-16T02:48:16.034Z,98903.56
2023-05-16T02:50:45.331Z,98906.56
2023-05-16T02:53:13.841Z,98897.44
2023-05-16T02:55:42.092Z,98906.34
2023-05-16T02:58:09.981Z,98904.47
2023-05-16T03:00:37.742Z,98908.91
2023-05-16T03:03:06.036Z,98908.97
2023-05-16T03:05:33.962Z,98906.19
2023-05-16T03:08:03.143Z,98901.91
2023-05-16T03:10:31.028Z,98902.69
2023-05-16T03:12:58.924Z,98899.59
2023-05-16T03:15:26.889Z,98911.31
2023-05-16T03:17:55.025Z,98910.91
2023-05-16T03:20:23.352Z,98913.00
2023-05-16T03:22:51.132Z,98907.44
2023-05-16T03:25:20.394Z,98900.97
2023-05-16T03:27:48.468Z,98904.53
2023-05-16T03:30:17.330Z,98902.69
2023-05-16T03:32:46.671Z,98909.97
2023-05-16T03:35:14.754Z,98908.88
2023-05-16T03:37:42.661Z,98916.09
2023-05-16T03:40:12.092Z,98911.19
2023-05-16T03:42:41.381Z,98910.13
2023-05-16T03:45:10.087Z,98914.31
2023-05-16T03:47:38.022Z,98912.03
2023-05-16T03:50:07.235Z,98899.66
2023-05-16T03:52:35.225Z,98917.09
2023-05-16T03:55:03.952Z,98914.75
2023-05-16T03:57:33.396Z,98916.47
2023-05-16T04:00:04.247Z,98924.81
2023-05-16T04:02:32.244Z,98918.91
2023-05-16T04:05:00.188Z,98919.25
2023-05-16T04:07:28.335Z,98929.34
2023-05-16T04:09:58.838Z,98928.16
2023-05-16T04:12:26.949Z,98927.38
2023-05-16T04:14:54.767Z,98931.56
2023-05-16T04:17:24.042Z,98937.16
2023-05-16T04:19:51.924Z,98915.19
2023-05-16T04:22:19.851Z,98939.63
2023-05-16T04:24:47.671Z,98942.41
2023-05-16T04:27:15.867Z,98933.13
2023-05-16T04:29:44.375Z,98948.09
2023-05-16T04:32:12.539Z,98931.00
2023-05-16T04:34:44.167Z,98943.75
2023-05-16T04:37:11.875Z,98947.31
2023-05-16T04:39:39.670Z,98943.59
2023-05-16T04:42:07.755Z,98950.38
2023-05-16T04:44:35.425Z,98951.00
2023-05-16T04:47:03.001Z,98959.13
2023-05-16T04:49:30.749Z,98960.78
2023-05-16T04:51:59.647Z,98965.13
2023-05-16T04:54:27.391Z,98960.00
2023-05-16T04:56:54.959Z,98960.47
2023-05-16T04:59:22.577Z,98962.41
2023-05-16T05:01:50.166Z,98962.34
2023-05-16T05:04:18.220Z,98955.97
2023-05-16T05:06:45.814Z,98962.75
2023-05-16T05:09:14.737Z,98966.88
2023-05-16T05:11:42.325Z,98969.19
2023-05-16T05:14:09.932Z,98974.09
2023-05-16T05:16:38.120Z,98976.03
2023-05-16T05:19:05.790Z,98980.63
2023-05-16T05:21:33.386Z,98986.84
2023-05-16T05:24:00.950Z,98973.47
2023-05-16T05:26:29.963Z,98947.41
2023-05-16T05:29:05.306Z,98987.31
2023-05-16T05:31:34.894Z,98987.56
2023-05-16T05:34:03.137Z,98986.69
2023-05-16T05:36:30.907Z,98995.00
2023-05-16T05:38:58.785Z,99004.41
2023-05-16T05:41:26.745Z,99001.28
2023-05-16T05:43:55.734Z,99007.56
2023-05-16T05:46:23.713Z,99003.47
2023-05-16T05:48:51.496Z,99009.84
2023-05-16T05:51:19.217Z,99003.31
2023-05-16T05:53:46.837Z,99005.56
2023-05-16T05:56:14.496Z,98995.47
2023-05-16T05:58:42.504Z,99017.22
2023-05-16T06:01:11.654Z,99017.47
2023-05-16T06:03:39.614Z,99020.78
2023-05-16T06:06:10.256Z,99020.72
2023-05-16T06:08:38.593Z,99032.69
2023-05-16T06:11:06.261Z,99031.50
2023-05-16T06:13:33.833Z,99027.94
2023-05-16T06:16:01.518Z,99032.22
2023-05-16T06:18:30.802Z,99026.69
2023-05-16T06:20:58.973Z,99022.19
2023-05-16T06:23:27.207Z,99016.91
2023-05-16T06:25:54.823Z,99032.97
2023-05-16T06:28:22.429Z,99033.81
2023-05-16T06:30:51.775Z,99046.31
2023-05-16T06:33:19.475Z,99047.38
2023-05-16T06:35:48.706Z,99046.31
2023-05-16T06:38:16.743Z,99059.16
2023-05-16T06:40:44.370Z,99050.09
2023-05-16T06:43:12.675Z,99063.38
2023-05-16T06:45:40.506Z,99061.69
2023-05-16T06:48:09.049Z,99062.06
2023-05-16T06:50:36.770Z,99065.19
2023-05-16T06:53:07.297Z,99059.13
2023-05-16T06:55:35.028Z,99069.91
2023-05-16T06:58:02.718Z,99083.47
2023-05-16T07:00:30.597Z,99070.91
2023-05-16T07:02:58.278Z,99076.53
2023-05-16T07:05:26.066Z,99081.44
2023-05-16T07:07:53.850Z,99083.13
2023-05-16T07:10:23.142Z,99068.97
2023-05-16T07:12:51.022Z,99077.09
2023-05-16T07:15:18.655Z,99092.78
2023-05-16T07:17:46.366Z,99093.56
2023-05-16T07:20:14.785Z,99090.13
2023-05-16T07:22:42.450Z,99093.63
2023-05-16T07:25:12.710Z,99107.19
2023-05-16T07:27:44.687Z,99108.63
2023-05-16T07:30:13.974Z,99111.41
2023-05-16T07:32:42.601Z,99117.63
2023-05-16T07:35:11.067Z,99121.91
2023-05-16T07:37:41.437Z,99129.06
2023-05-16T07:40:10.373Z,99132.97
2023-05-16T07:42:38.051Z,99132.47
2023-05-16T07:45:08.434Z,99134.75
2023-05-16T07:47:36.300Z,99140.97
2023-05-16T07:50:04.296Z,99153.16
2023-05-16T07:52:31.981Z,99146.19
2023-05-16T07:54:59.617Z,99149.59
2023-05-16T07:57:27.473Z,99143.53
2023-05-16T07:59:55.138Z,99152.25
2023-05-16T08:02:26.284Z,99157.38
2023-05-16T08:04:54.129Z,99152.53
2023-05-16T08:07:22.209Z,99157.66
2023-05-16T08:09:49.820Z,99161.06
2023-05-16T08:12:17.543Z,99166.06
2023-05-16T08:14:45.203Z,99169.41
2023-05-16T08:17:12.972Z,99174.91
2023-05-16T08:19:41.998Z,99184.81
2023-05-16T08:22:10.480Z,99182.38
2023-05-16T08:24:38.142Z,99182.03
2023-05-16T08:27:06.383Z,99187.84
2023-05-16T08:29:33.980Z,99179.38
2023-05-16T08:32:02.021Z,99187.97
2023-05-16T08:34:32.186Z,99192.47
2023-05-16T08:37:01.460Z,99190.38
2023-05-16T08:39:30.587Z,99192.88
2023-05-16T08:41:58.913Z,99192.66
2023-05-16T08:44:26.650Z,99194.13
2023-05-16T08:46:55.103Z,99203.34
2023-05-16T08:49:22.826Z,99197.69
2023-05-16T08:51:52.850Z,99204.94
2023-05-16T08:54:22.694Z,99200.66
2023-05-16T08:56:51.260Z,99199.38
2023-05-16T08:59:23.444Z,99206.78
2023-05-16T09:01:51.618Z,99213.25
2023-05-16T09:04:19.506Z,99202.97
2023-05-16T09:06:49.276Z,99206.53
2023-05-16T09:09:16.918Z,99208.63
2023-05-16T09:11:46.016Z,99187.44
2023-05-16T09:14:14.177Z,99209.47
2023-05-16T09:16:41.929Z,99219.13
2023-05-16T09:19:14.078Z,99214.84
2023-05-16T09:21:41.878Z,99211.81
2023-05-16T09:24:10.765Z,99215.50
2023-05-16T09:26:39.511Z,99223.88
2023-05-16T09:29:13.222Z,99221.84
2023-05-16T09:31:41.279Z,99209.25
2023-05-16T09:34:11.161Z,99226.38
2023-05-16T09:36:39.653Z,99225.88
2023-05-16T09:39:08.597Z,99227.09
2023-05-16T09:41:36.675Z,99225.88
2023-05-16T09:44:05.613Z,99226.50
2023-05-16T09:46:38.425Z,99229.06
2023-05-16T09:49:06.249Z,99238.47
2023-05-16T09:51:34.706Z,99238.34
2023-05-16T09:54:02.427Z,99240.41
2023-05-16T09:56:30.715Z,99237.19
2023-05-16T09:58:58.460Z,99237.25
2023-05-16T10:01:26.166Z,99224.06
2023-05-16T10:03:55.439Z,99227.81
2023-05-16T10:06:23.512Z,99229.06
2023-05-16T10:08:52.117Z,99240.47
2023-05-16T10:11:20.297Z,99237.97
2023-05-16T10:13:53.001Z,99240.00
2023-05-16T10:16:23.030Z,99243.84
2023-05-16T10:18:51.394Z,99241.03
2023-05-16T10:21:20.803Z,99246.00
2023-05-16T10:23:49.785Z,99247.06
2023-05-16T10:26:18.455Z,99249.34
2023-05-16T10:28:46.638Z,99245.72
2023-05-16T10:31:15.177Z,99243.63
2023-05-16T10:33:42.984Z,99243.09
2023-05-16T10:36:11.194Z,99244.66
2023-05-16T10:38:40.766Z,99248.47
2023-05-16T10:41:08.862Z,99245.28
2023-05-16T10:43:36.941Z,99257.78
2023-05-16T10:46:06.236Z,99247.84
2023-05-16T10:48:35.765Z,99254.41
2023-05-16T10:51:04.353Z,99255.28
2023-05-16T10:53:33.935Z,99253.75
2023-05-16T10:56:13.170Z,99250.00
2023-05-16T10:58:45.115Z,99251.91
2023-05-16T11:01:20.673Z,99257.28
2023-05-16T11:04:10.097Z,99250.41
2023-05-16T11:06:46.835Z,99256.88
2023-05-16T11:09:26.584Z,99249.84
2023-05-16T11:12:00.691Z,99252.41
2023-05-16T11:14:32.000Z,99250.63
2023-05-16T11:17:04.266Z,99256.09
2023-05-16T11:19:34.223Z,99251.59
2023-05-16T11:22:12.504Z,99248.59
2023-05-16T11:24:41.032Z,99250.00
2023-05-16T11:27:10.012Z,99254.16
2023-05-16T11:29:38.115Z,99253.69
2023-05-16T11:32:06.550Z,99257.81
2023-05-16T11:34:37.658Z,99247.78
2023-05-16T11:37:05.669Z,99244.97
2023-05-16T11:39:34.350Z,99240.34
2023-05-16T11:42:02.459Z,99238.88
2023-05-16T11:44:32.024Z,99213.84
2023-05-16T11:47:01.253Z,99234.59
2023-05-16T11:49:29.165Z,99228.19
2023-05-16T11:51:57.681Z,99230.59
2023-05-16T11:54:25.601Z,99231.91
2023-05-16T11:56:53.451Z,99234.47
2023-05-16T11:59:21.645Z,99243.19
2023-05-16T12:01:51.071Z,99234.94
2023-05-16T12:04:20.730Z,99236.84
2023-05-16T12:07:00.574Z,99227.09
2023-05-16T12:09:28.394Z,99227.22
2023-05-16T12:11:56.189Z,99217.94
2023-05-16T12:14:24.261Z,99226.53
2023-05-16T12:16:53.704Z,99230.25
2023-05-16T12:19:22.345Z,99227.69
2023-05-16T12:21:54.206Z,99212.91
2023-05-16T12:24:22.144Z,99227.00
2023-05-16T12:26:49.891Z,99221.88
2023-05-16T12:29:17.571Z,99213.84
2023-05-16T12:31:45.629Z,99220.56
2023-05-16T12:34:18.554Z,99217.06
2023-05-16T12:36:46.220Z,99203.91
2023-05-16T12:39:15.342Z,99222.00
2023-05-16T12:41:43.662Z,99230.75
2023-05-16T12:44:17.087Z,99229.09
2023-05-16T12:46:46.164Z,99217.00
2023-05-16T12:49:14.547Z,99225.44
2023-05-16T12:51:49.861Z,99220.72
2023-05-16T12:54:17.749Z,99232.53
2023-05-16T12:56:46.149Z,99223.63
2023-05-16T12:59:13.790Z,99232.25
2023-05-16T13:01:42.041Z,99231.28
2023-05-16T13:04:14.825Z,99238.47
2023-05-16T13:06:57.572Z,99229.84
2023-05-16T13:09:30.013Z,99240.13
2023-05-16T13:11:59.560Z,99243.81
2023-05-16T13:14:27.272Z,99238.31
2023-05-16T13:16:55.000Z,99244.00
2023-05-16T13:19:24.371Z,99240.41
2023-05-16T13:21:53.543Z,99242.88
2023-05-16T13:24:21.275Z,99246.84
2023-05-16T13:26:48.885Z,99237.03
2023-05-16T13:29:16.601Z,99249.44
2023-05-16T13:31:44.769Z,99240.13
2023-05-16T13:34:12.647Z,99230.13
2023-05-16T13:36:52.925Z,99259.94
2023-05-16T13:39:23.198Z,99255.97
2023-05-16T13:41:51.401Z,99265.56
2023-05-16T13:44:19.071Z,99257.78
2023-05-16T13:46:46.912Z,99260.91
2023-05-16T13:49:14.641Z,99266.97
2023-05-16T13:51:42.353Z,99253.53
2023-05-16T13:54:10.029Z,99260.56
2023-05-16T13:56:39.116Z,99267.59
2023-05-16T13:59:07.472Z,99270.69
2023-05-16T14:01:36.588Z,99247.56
2023-05-16T14:04:04.694Z,99264.59
2023-05-16T14:06:33.425Z,99262.91
2023-05-16T14:09:01.319Z,99268.03
2023-05-16T14:11:29.694Z,99264.41
2023-05-16T14:13:59.546Z,99269.22
2023-05-16T14:16:27.536Z,99268.47
2023-05-16T14:18:55.405Z,99273.25
2023-05-16T14:21:23.224Z,99227.38
2023-05-16T14:23:51.046Z,99234.00
2023-05-16T14:26:22.460Z,99274.56
2023-05-16T14:28:50.086Z,99271.88
2023-05-16T14:31:19.377Z,99268.09
2023-05-16T14:33:47.983Z,99268.06
2023-05-16T14:36:16.141Z,99272.41
2023-05-16T14:38:43.755Z,99276.91
2023-05-16T14:41:11.466Z,99269.84
2023-05-16T14:43:39.182Z,99272.13
2023-05-16T14:46:06.963Z,99273.78
2023-05-16T14:48:36.526Z,99275.72
2023-05-16T14:51:04.814Z,99273.06
2023-05-16T14:53:32.758Z,99279.03
2023-05-16T14:56:02.706Z,99269.16
2023-05-16T14:58:30.677Z,99287.59
2023-05-16T15:00:58.561Z,99307.13
2023-05-16T15:03:26.430Z,99293.25
2023-05-16T15:05:55.641Z,99294.75
2023-05-16T15:08:23.355Z,99300.91
2023-05-16T15:10:50.976Z,99299.25
2023-05-16T15:13:18.627Z,99297.56
2023-05-16T15:15:46.267Z,99297.81
2023-05-16T15:18:13.936Z,99287.03
2023-05-16T15:20:41.645Z,99295.84
2023-05-16T15:23:10.636Z,99298.00
2023-05-16T15:25:38.294Z,99304.44
2023-05-16T15:28:07.203Z,99311.72
2023-05-16T15:30:35.612Z,99304.34
2023-05-16T15:33:03.399Z,99296.88
2023-05-16T15:35:31.389Z,99293.59
2023-05-16T15:37:59.727Z,99300.09
2023-05-16T15:40:29.325Z,99303.97
2023-05-16T15:42:57.040Z,99315.22
2023-05-16T15:45:24.980Z,99306.66
2023-05-16T15:47:52.756Z,99315.41
2023-05-16T15:50:20.763Z,99312.00
2023-05-16T15:52:48.502Z,99307.63
2023-05-16T15:55:16.589Z,99290.63
2023-05-16T15:57:46.349Z,99270.09
2023-05-16T16:00:15.045Z,99306.88
2023-05-16T16:02:45.279Z,99296.53
2023-05-16T16:05:13.181Z,99304.63
2023-05-16T16:07:40.875Z,99302.25
2023-05-16T16:10:09.804Z,99301.72
2023-05-16T16:12:37.680Z,99300.44
2023-05-16T16:15:07.930Z,99289.75
2023-05-16T16:17:35.729Z,99297.88
2023-05-16T16:20:03.468Z,99299.56
2023-05-16T16:22:31.342Z,99272.13
2023-05-16T16:24:59.040Z,99285.44
2023-05-16T16:27:26.665Z,99288.81
2023-05-16T16:29:54.359Z,99290.97
2023-05-16T16:32:23.461Z,99298.00
2023-05-16T16:34:51.170Z,99299.13
2023-05-16T16:37:18.813Z,99285.88
2023-05-16T16:39:48.586Z,99291.88
2023-05-16T16:42:16.656Z,99276.25
2023-05-16T16:44:44.436Z,99284.72
2023-05-16T16:47:12.382Z,99291.03
2023-05-16T16:49:41.929Z,99287.13
2023-05-16T16:52:09.812Z,99289.50
2023-05-16T16:54:37.601Z,99296.66
2023-05-16T16:57:05.643Z,99295.66
2023-05-16T16:59:33.333Z,99298.31
2023-05-16T17:02:00.990Z,99302.31
2023-05-16T17:04:28.674Z,99300.53
2023-05-16T17:06:57.694Z,99294.28
2023-05-16T17:09:27.070Z,99296.06
2023-05-16T17:11:54.788Z,99311.19
2023-05-16T17:14:22.384Z,99302.47
2023-05-16T17:16:50.151Z,99309.16
2023-05-16T17:19:18.712Z,99311.34
2023-05-16T17:21:47.431Z,99316.25
2023-05-16T17:24:16.419Z,99313.22
2023-05-16T17:26:44.043Z,99312.97
2023-05-16T17:29:11.771Z,99319.81
2023-05-16T17:31:39.470Z,99316.75
2023-05-16T17:34:07.707Z,99317.94
2023-05-16T17:36:36.368Z,99325.72
2023-05-16T17:39:07.864Z,99319.75
2023-05-16T17:41:36.919Z,99285.31
2023-05-16T17:44:06.825Z,99317.56
2023-05-16T17:46:34.842Z,99322.25
2023-05-16T17:49:02.678Z,99333.19
2023-05-16T17:51:30.787Z,99319.78
2023-05-16T17:53:58.736Z,99329.69
2023-05-16T17:56:27.090Z,99339.75
2023-05-16T17:58:56.100Z,99345.91
2023-05-16T18:01:23.763Z,99330.25
2023-05-16T18:03:51.493Z,99339.88
2023-05-16T18:06:19.667Z,99331.34
2023-05-16T18:08:47.468Z,99343.47
2023-05-16T18:11:15.240Z,99335.94
2023-05-16T18:13:44.094Z,99344.72
2023-05-16T18:16:13.315Z,99342.41
2023-05-16T18:18:41.784Z,99345.38
2023-05-16T18:21:09.837Z,99353.16
2023-05-16T18:23:38.417Z,99356.28
2023-05-16T18:26:06.334Z,99359.16
2023-05-16T18:28:34.121Z,99360.31
2023-05-16T18:31:03.930Z,99363.88
2023-05-16T18:33:33.202Z,99367.53
2023-05-16T18:36:01.188Z,99376.69
2023-05-16T18:38:33.020Z,99375.41
2023-05-16T18:41:02.002Z,99382.31
2023-05-16T18:43:30.706Z,99383.78
2023-05-16T18:45:59.053Z,99390.38
2023-05-16T18:48:27.295Z,99363.88
2023-05-16T18:50:57.038Z,99396.66
2023-05-16T18:53:25.176Z,99397.66
2023-05-16T18:55:53.268Z,99397.97
2023-05-16T18:58:21.341Z,99399.22
2023-05-16T19:00:49.496Z,99398.41
2023-05-16T19:03:17.598Z,99407.91
2023-05-16T19:05:46.090Z,99395.56
2023-05-16T19:08:15.627Z,99403.03
2023-05-16T19:10:43.634Z,99406.56
2023-05-16T19:13:11.768Z,99411.13
2023-05-16T19:15:39.737Z,99397.13
2023-05-16T19:18:08.178Z,99420.38
2023-05-16T19:20:36.784Z,99427.97
2023-05-16T19:23:12.187Z,99429.94
2023-05-16T19:25:47.095Z,99439.00
2023-05-16T19:28:15.206Z,99434.03
2023-05-16T19:30:43.266Z,99435.22
2023-05-16T19:33:11.474Z,99443.16
2023-05-16T19:35:39.725Z,99447.75
2023-05-16T19:38:07.733Z,99452.25
2023-05-16T19:40:35.979Z,99453.78
2023-05-16T19:43:05.760Z,99466.38
2023-05-16T19:45:33.718Z,99467.78
2023-05-16T19:48:01.776Z,99469.56
2023-05-16T19:50:29.845Z,99453.56
2023-05-16T19:52:57.898Z,99476.63
2023-05-16T19:55:27.594Z,99483.25
2023-05-16T19:57:56.584Z,99490.25
2023-05-16T20:00:26.438Z,99481.25
2023-05-16T20:02:54.690Z,99495.41
2023-05-16T20:05:23.410Z,99508.59
2023-05-16T20:07:51.866Z,99498.47
2023-05-16T20:10:21.932Z,99506.25
2023-05-16T20:12:50.138Z,99516.94
2023-05-16T20:15:19.028Z,99511.53
2023-05-16T20:17:48.799Z,99510.06
2023-05-16T20:20:17.198Z,99521.69
2023-05-16T20:22:45.237Z,99521.00
2023-05-16T20:25:13.426Z,99525.25
2023-05-16T20:27:41.813Z,99523.75
2023-05-16T20:30:10.898Z,99527.38
2023-05-16T20:32:38.930Z,99525.72
2023-05-16T20:35:11.215Z,99530.19
2023-05-16T20:37:39.309Z,99533.00
2023-05-16T20:40:10.903Z,99529.63
2023-05-16T20:42:39.165Z,99532.78
2023-05-16T20:45:08.173Z,99542.56
2023-05-16T20:47:36.063Z,99545.91
2023-05-16T20:50:04.158Z,99548.88
2023-05-16T20:52:33.704Z,99540.03
2023-05-16T20:55:02.534Z,99548.75
2023-05-16T20:57:30.368Z,99550.00
2023-05-16T20:59:58.446Z,99552.53
2023-05-16T21:02:26.392Z,99553.38
2023-05-16T21:04:54.628Z,99557.91
2023-05-16T21:07:23.318Z,99563.44
2023-05-16T21:09:52.951Z,99557.31
2023-05-16T21:12:21.187Z,99564.50
2023-05-16T21:14:49.699Z,99565.69
2023-05-16T21:17:17.660Z,99565.44
2023-05-16T21:19:45.672Z,99550.91
2023-05-16T21:22:13.756Z,99568.47
2023-05-16T21:24:41.801Z,99569.34
2023-05-16T21:27:11.662Z,99566.06
2023-05-16T21:29:39.555Z,99562.78
2023-05-16T21:32:09.129Z,99573.19
2023-05-16T21:34:36.982Z,99570.72
2023-05-16T21:37:07.211Z,99574.94
2023-05-16T21:39:35.290Z,99574.22
2023-05-16T21:42:03.473Z,99575.38
2023-05-16T21:44:33.017Z,99573.63
2023-05-16T21:47:01.033Z,99583.44
2023-05-16T21:49:29.171Z,99581.00
2023-05-16T21:51:57.254Z,99585.22
2023-05-16T21:54:25.656Z,99581.88
2023-05-16T21:56:53.584Z,99591.47
2023-05-16T21:59:21.849Z,99585.00
2023-05-16T22:01:51.200Z,99582.31
2023-05-16T22:04:19.260Z,99592.69
2023-05-16T22:06:47.354Z,99602.34
2023-05-16T22:09:15.383Z,99586.41
2023-05-16T22:11:43.348Z,99582.72
2023-05-16T22:14:11.493Z,99590.00
2023-05-16T22:16:39.665Z,99587.44
2023-05-16T22:19:09.255Z,99596.34
2023-05-16T22:21:37.759Z,99593.56
2023-05-16T22:24:06.383Z,99585.72
2023-05-16T22:26:34.231Z,99596.03
2023-05-16T22:29:02.287Z,99581.34
2023-05-16T22:31:30.172Z,99593.66
2023-05-16T22:33:58.191Z,99598.91
2023-05-16T22:36:27.614Z,99587.31
2023-05-16T22:38:55.810Z,99593.59
2023-05-16T22:41:23.657Z,99594.94
2023-05-16T22:43:51.567Z,99582.50
2023-05-16T22:46:19.461Z,99592.13
2023-05-16T22:48:47.558Z,99595.19
2023-05-16T22:51:16.024Z,99590.78
2023-05-16T22:53:45.608Z,99597.59
2023-05-16T22:56:14.293Z,99592.31
2023-05-16T22:58:42.681Z,99599.31
2023-05-16T23:01:10.633Z,99598.72
2023-05-16T23:03:38.724Z,99591.50
2023-05-16T23:06:07.298Z,99596.97
2023-05-16T23:08:35.574Z,99601.25
2023-05-16T23:11:05.351Z,99606.34
2023-05-16T23:13:33.545Z,99598.28
2023-05-16T23:16:01.645Z,99597.53
2023-05-16T23:18:29.733Z,99581.84
2023-05-16T23:20:57.805Z,99599.00
2023-05-16T23:23:26.191Z,99595.03
2023-05-16T23:25:54.206Z,99605.47
2023-05-16T23:28:23.360Z,99605.13
2023-05-16T23:30:51.274Z,99605.22
2023-05-16T23:33:19.202Z,99597.44
2023-05-16T23:35:46.846Z,99608.81
2023-05-16T23:38:14.466Z,99610.53
2023-05-16T23:40:42.062Z,99611.50
2023-05-16T23:43:09.770Z,99616.94
2023-05-16T23:45:38.757Z,99623.03
2023-05-16T23:48:07.019Z,99620.31
2023-05-16T23:50:34.804Z,99617.75
2023-05-16T23:53:02.447Z,99618.53
2023-05-16T23:55:30.322Z,99624.84
2023-05-16T23:57:57.909Z,99624.53
